createdAt,value
2018-01-04T00:00:19.028Z,23.80
2018-01-04T00:02:46.456Z,33.20
2018-01-04T00:05:14.890Z,18.70
2018-01-04T00:07:42.416Z,25.48
2018-01-04T00:10:09.984Z,26.90
2018-01-04T00:12:37.414Z,29.83
2018-01-04T00:15:04.844Z,27.40
2018-01-04T00:17:33.148Z,24.73
2018-01-04T00:20:00.624Z,30.23
2018-01-04T00:22:28.052Z,26.67
2018-01-04T00:24:55.484Z,31.40
2018-01-04T00:27:22.969Z,29.87
2018-01-04T00:29:50.429Z,28.65
2018-01-04T00:32:17.856Z,28.25
2018-01-04T00:34:45.315Z,28.87
2018-01-04T00:37:12.801Z,26.23
2018-01-04T00:39:40.260Z,20.40
2018-01-04T00:42:07.683Z,25.75
2018-01-04T00:44:35.208Z,23.60
2018-01-04T00:47:02.784Z,28.25
2018-01-04T00:49:30.329Z,21.50
2018-01-04T00:51:57.761Z,25.20
2018-01-04T00:54:25.215Z,24.40
2018-01-04T00:56:52.673Z,39.42
2018-01-04T00:59:20.154Z,26.33
2018-01-04T01:01:48.381Z,34.40
2018-01-04T01:04:16.583Z,24.80
2018-01-04T01:06:44.056Z,23.67
2018-01-04T01:09:11.492Z,28.27
2018-01-04T01:11:38.928Z,24.65
2018-01-04T01:14:07.153Z,30.85
2018-01-04T01:16:35.029Z,29.27
2018-01-04T01:19:02.467Z,35.83
2018-01-04T01:21:29.900Z,28.33
2018-01-04T01:23:57.619Z,25.95
2018-01-04T01:26:25.061Z,21.27
2018-01-04T01:28:52.688Z,31.20
2018-01-04T01:31:20.120Z,26.40
2018-01-04T01:33:48.340Z,28.12
2018-01-04T01:36:15.772Z,24.52
2018-01-04T01:38:43.240Z,31.90
2018-01-04T01:41:10.673Z,23.20
2018-01-04T01:43:38.896Z,28.08
2018-01-04T01:46:06.344Z,30.23
2018-01-04T01:48:33.895Z,26.12
2018-01-04T01:51:01.321Z,19.73
2018-01-04T01:53:29.532Z,36.83
2018-01-04T01:55:56.968Z,29.85
2018-01-04T01:58:24.453Z,33.55
2018-01-04T02:00:51.888Z,30.62
2018-01-04T02:03:19.320Z,32.30
2018-01-04T02:05:47.648Z,36.20
2018-01-04T02:08:15.084Z,24.67
2018-01-04T02:10:42.513Z,32.10
2018-01-04T02:13:10.863Z,35.25
2018-01-04T02:15:38.295Z,30.20
2018-01-04T02:18:17.609Z,34.90
2018-01-04T02:20:57.104Z,26.87
2018-01-04T02:23:36.468Z,28.65
2018-01-04T02:26:04.676Z,30.33
2018-01-04T02:28:54.708Z,29.35
2018-01-04T02:31:42.945Z,30.00
2018-01-04T02:34:21.077Z,26.85
2018-01-04T02:37:02.265Z,29.85
2018-01-04T02:39:42.296Z,32.88
2018-01-04T02:42:30.654Z,32.53
2018-01-04T02:45:20.205Z,32.42
2018-01-04T02:47:47.912Z,27.05
2018-01-04T02:50:15.352Z,33.67
2018-01-04T02:52:43.553Z,34.60
2018-01-04T02:55:11.006Z,34.03
2018-01-04T02:57:38.445Z,28.42
2018-01-04T03:00:06.984Z,30.65
2018-01-04T03:02:34.421Z,28.85
2018-01-04T03:05:01.857Z,33.15
2018-01-04T03:07:29.312Z,30.08
2018-01-04T03:09:59.272Z,35.47
2018-01-04T03:12:26.709Z,27.85
2018-01-04T03:14:54.142Z,34.78
2018-01-04T03:17:21.732Z,23.23
2018-01-04T03:19:49.192Z,39.78
2018-01-04T03:22:22.344Z,31.35
2018-01-04T03:25:09.275Z,32.75
2018-01-04T03:27:42.352Z,29.60
2018-01-04T03:30:16.373Z,31.45
2018-01-04T03:32:49.912Z,30.62
2018-01-04T03:35:23.053Z,32.53
2018-01-04T03:37:57.109Z,34.60
2018-01-04T03:40:30.273Z,41.58
2018-01-04T03:46:09.077Z,23.95
2018-01-04T03:48:42.531Z,26.52
2018-01-04T03:51:15.514Z,25.83
2018-01-04T03:53:49.452Z,29.33
2018-01-04T03:56:31.930Z,38.38
2018-01-04T03:59:04.992Z,29.35
2018-01-04T04:01:48.873Z,37.78
2018-01-04T04:04:21.947Z,30.25
2018-01-04T04:06:55.061Z,27.70
2018-01-04T04:09:22.520Z,38.88
2018-01-04T04:11:49.947Z,32.35
2018-01-04T04:14:20.096Z,46.95
2018-01-04T04:16:47.569Z,38.00
2018-01-04T04:19:15.360Z,37.20
2018-01-04T04:21:43.896Z,28.98
2018-01-04T04:24:11.341Z,34.70
2018-01-04T04:26:38.797Z,34.55
2018-01-04T04:29:06.254Z,31.87
2018-01-04T04:31:54.836Z,32.70
2018-01-04T04:34:22.298Z,26.98
2018-01-04T04:36:49.887Z,31.60
2018-01-04T04:39:18.121Z,33.08
2018-01-04T04:41:45.580Z,32.35
2018-01-04T04:44:13.042Z,27.00
2018-01-04T04:46:40.477Z,37.20
2018-01-04T04:49:07.981Z,30.48
2018-01-04T04:51:35.413Z,32.60
2018-01-04T04:54:03.072Z,45.47
2018-01-04T04:56:30.508Z,32.47
2018-01-04T04:58:58.949Z,32.50
2018-01-04T05:01:27.164Z,36.45
2018-01-04T05:03:54.653Z,34.85
2018-01-04T05:06:22.081Z,32.30
2018-01-04T05:08:49.508Z,31.20
2018-01-04T05:11:17.773Z,33.92
2018-01-04T05:13:46.083Z,39.63
2018-01-04T05:16:13.522Z,31.85
2018-01-04T05:18:41.805Z,25.67
2018-01-04T05:21:09.236Z,35.58
2018-01-04T05:23:36.673Z,31.05
2018-01-04T05:26:04.129Z,30.25
2018-01-04T05:28:31.564Z,32.15
2018-01-04T05:30:59.149Z,32.55
2018-01-04T05:33:26.589Z,29.02
2018-01-04T05:35:54.057Z,27.45
2018-01-04T05:38:21.484Z,30.02
2018-01-04T05:40:48.968Z,30.42
2018-01-04T05:43:16.407Z,30.48
2018-01-04T05:45:43.838Z,33.60
2018-01-04T05:48:12.868Z,26.15
2018-01-04T05:50:40.367Z,33.08
2018-01-04T05:53:07.782Z,34.67
2018-01-04T05:55:35.225Z,26.42
2018-01-04T05:58:02.685Z,35.25
2018-01-04T06:00:30.141Z,33.90
2018-01-04T06:02:57.573Z,29.73
2018-01-04T06:05:25.075Z,24.58
2018-01-04T06:07:52.525Z,30.60
2018-01-04T06:10:19.957Z,30.50
2018-01-04T06:12:47.485Z,32.30
2018-01-04T06:15:15.693Z,35.33
2018-01-04T06:17:43.353Z,51.13
2018-01-04T06:20:10.936Z,171.48
2018-01-04T06:22:38.372Z,31.02
2018-01-04T06:25:06.046Z,31.15
2018-01-04T06:27:34.461Z,24.25
2018-01-04T06:30:01.901Z,28.15
2018-01-04T06:32:30.646Z,24.45
2018-01-04T06:34:58.085Z,27.92
2018-01-04T06:37:25.517Z,27.77
2018-01-04T06:39:53.001Z,28.15
2018-01-04T06:42:21.205Z,24.77
2018-01-04T06:44:48.637Z,30.30
2018-01-04T06:47:16.889Z,27.25
2018-01-04T06:49:44.325Z,29.08
2018-01-04T06:52:11.765Z,23.20
2018-01-04T06:54:39.257Z,26.27
2018-01-04T06:57:06.696Z,23.45
2018-01-04T06:59:34.225Z,31.42
2018-01-04T07:02:01.711Z,25.80
2018-01-04T07:04:29.168Z,25.23
2018-01-04T07:06:56.731Z,22.23
2018-01-04T07:09:24.164Z,30.52
2018-01-04T07:11:51.617Z,32.40
2018-01-04T07:14:19.045Z,21.98
2018-01-04T07:16:47.276Z,27.48
2018-01-04T07:19:14.711Z,33.58
2018-01-04T07:21:47.302Z,80.45
2018-01-04T07:24:14.745Z,44.83
2018-01-04T07:26:42.381Z,34.53
2018-01-04T07:29:10.587Z,29.70
2018-01-04T07:31:38.045Z,25.58
2018-01-04T07:34:05.490Z,34.92
2018-01-04T07:36:32.964Z,21.20
2018-01-04T07:39:00.404Z,35.42
2018-01-04T07:41:27.845Z,33.67
2018-01-04T07:43:58.732Z,37.85
2018-01-04T07:46:26.173Z,29.05
2018-01-04T07:48:53.617Z,45.40
2018-01-04T07:51:21.417Z,21.62
2018-01-04T07:53:48.861Z,35.25
2018-01-04T07:56:16.297Z,26.00
2018-01-04T07:58:43.777Z,28.67
2018-01-04T08:01:11.265Z,26.12
2018-01-04T08:03:38.817Z,19.37
2018-01-04T08:06:06.249Z,27.17
2018-01-04T08:08:33.704Z,27.80
2018-01-04T08:11:01.185Z,26.58
2018-01-04T08:13:28.710Z,25.65
2018-01-04T08:15:56.149Z,31.75
2018-01-04T08:18:23.590Z,24.00
2018-01-04T08:20:56.946Z,50.92
2018-01-04T08:23:24.552Z,31.12
2018-01-04T08:25:52.826Z,29.73
2018-01-04T08:28:21.025Z,21.10
2018-01-04T08:30:48.501Z,25.70
2018-01-04T08:33:15.946Z,27.48
2018-01-04T08:35:43.376Z,41.72
2018-01-04T08:38:11.790Z,24.15
2018-01-04T08:40:39.228Z,23.20
2018-01-04T08:43:06.680Z,32.20
2018-01-04T08:45:34.903Z,25.08
2018-01-04T08:48:02.377Z,24.83
2018-01-04T08:50:29.822Z,36.20
2018-01-04T08:52:57.286Z,19.62
2018-01-04T08:55:30.697Z,21.62
2018-01-04T08:57:59.458Z,23.85
2018-01-04T09:00:27.748Z,17.23
2018-01-04T09:02:55.216Z,16.60
2018-01-04T09:05:22.658Z,21.58
2018-01-04T09:07:51.342Z,19.37
2018-01-04T09:10:18.782Z,20.90
2018-01-04T09:12:47.193Z,19.20
2018-01-04T09:15:14.936Z,28.30
2018-01-04T09:17:42.385Z,18.58
2018-01-04T09:20:09.829Z,11.80
2018-01-04T09:22:37.309Z,21.45
2018-01-04T09:25:04.881Z,15.07
2018-01-04T09:27:32.308Z,17.10
2018-01-04T09:29:59.876Z,15.15
2018-01-04T09:32:27.322Z,11.85
2018-01-04T09:34:59.616Z,10.90
2018-01-04T09:37:27.106Z,11.82
2018-01-04T09:39:54.541Z,10.23
2018-01-04T09:42:22.009Z,12.55
2018-01-04T09:44:49.457Z,13.85
2018-01-04T09:47:16.909Z,10.70
2018-01-04T09:49:44.559Z,16.55
2018-01-04T09:52:12.000Z,13.25
2018-01-04T09:54:40.208Z,14.75
2018-01-04T09:57:07.673Z,10.75
2018-01-04T09:59:35.145Z,12.95
2018-01-04T10:02:03.510Z,8.57
2018-01-04T10:04:30.964Z,8.80
2018-01-04T10:06:58.411Z,9.15
2018-01-04T10:09:25.945Z,8.43
2018-01-04T10:11:53.435Z,10.00
2018-01-04T10:14:20.842Z,11.05
2018-01-04T10:16:48.761Z,9.75
2018-01-04T10:19:23.507Z,11.32
2018-01-04T10:21:50.949Z,15.95
2018-01-04T10:24:18.390Z,9.40
2018-01-04T10:26:45.856Z,11.73
2018-01-04T10:29:23.366Z,12.73
2018-01-04T10:31:50.801Z,9.75
2018-01-04T10:34:18.393Z,12.48
2018-01-04T10:36:45.830Z,9.38
2018-01-04T10:39:13.298Z,10.35
2018-01-04T10:41:40.746Z,16.58
2018-01-04T10:44:08.229Z,10.82
2018-01-04T10:46:36.450Z,9.38
2018-01-04T10:49:03.944Z,7.80
2018-01-04T10:51:31.400Z,12.48
2018-01-04T10:53:58.829Z,10.38
2018-01-04T10:56:26.336Z,10.40
2018-01-04T10:58:58.260Z,10.35
2018-01-04T11:01:25.713Z,10.18
2018-01-04T11:03:53.188Z,9.77
2018-01-04T11:06:20.608Z,11.07
2018-01-04T11:08:48.077Z,12.90
2018-01-04T11:11:15.525Z,14.02
2018-01-04T11:13:43.144Z,11.35
2018-01-04T11:16:11.355Z,8.75
2018-01-04T11:18:39.012Z,13.30
2018-01-04T11:21:06.528Z,6.45
2018-01-04T11:23:33.995Z,11.65
2018-01-04T11:26:01.472Z,13.50
2018-01-04T11:28:28.908Z,8.32
2018-01-04T11:30:58.297Z,8.57
2018-01-04T11:33:25.805Z,9.13
2018-01-04T11:35:53.361Z,9.50
2018-01-04T11:38:20.809Z,10.88
2018-01-04T11:40:48.244Z,7.05
2018-01-04T11:43:15.701Z,9.75
2018-01-04T11:45:43.207Z,9.90
2018-01-04T11:48:10.645Z,9.45
2018-01-04T11:50:38.105Z,12.00
2018-01-04T11:53:06.514Z,8.45
2018-01-04T11:55:33.953Z,9.50
2018-01-04T11:58:01.384Z,7.07
2018-01-04T12:00:30.945Z,7.35
2018-01-04T12:02:58.388Z,4.30
2018-01-04T12:05:26.798Z,7.18
2018-01-04T12:07:54.397Z,5.82
2018-01-04T12:10:21.861Z,11.88
2018-01-04T12:12:49.324Z,9.23
2018-01-04T12:15:16.842Z,6.50
2018-01-04T12:17:44.268Z,15.05
2018-01-04T12:20:11.800Z,5.32
2018-01-04T12:22:39.293Z,7.97
2018-01-04T12:25:07.057Z,17.70
2018-01-04T12:27:34.496Z,8.45
2018-01-04T12:30:01.960Z,31.95
2018-01-04T12:32:29.404Z,5.70
2018-01-04T12:35:00.868Z,11.32
2018-01-04T12:37:28.313Z,37.53
2018-01-04T12:39:55.754Z,19.48
2018-01-04T12:42:24.581Z,16.08
2018-01-04T12:44:52.053Z,11.60
2018-01-04T12:47:19.561Z,12.93
2018-01-04T12:49:47.056Z,12.57
2018-01-04T12:52:14.492Z,5.78
2018-01-04T12:54:41.981Z,5.40
2018-01-04T12:57:09.428Z,24.58
2018-01-04T12:59:36.866Z,8.85
2018-01-04T13:02:04.652Z,7.43
2018-01-04T13:04:32.112Z,10.70
2018-01-04T13:06:59.550Z,4.07
2018-01-04T13:09:27.017Z,6.25
2018-01-04T13:11:54.466Z,13.60
2018-01-04T13:14:21.925Z,6.95
2018-01-04T13:16:49.361Z,7.95
2018-01-04T13:19:16.955Z,24.67
2018-01-04T13:21:44.405Z,29.58
2018-01-04T13:24:12.026Z,21.50
2018-01-04T13:26:40.297Z,8.85
2018-01-04T13:29:08.505Z,9.73
2018-01-04T13:31:35.946Z,5.22
2018-01-04T13:34:03.552Z,4.65
2018-01-04T13:36:31.020Z,4.93
2018-01-04T13:38:58.456Z,10.05
2018-01-04T13:41:25.897Z,3.42
2018-01-04T13:43:53.393Z,3.70
2018-01-04T13:46:20.832Z,4.70
2018-01-04T13:48:48.276Z,3.50
2018-01-04T13:51:15.901Z,4.00
2018-01-04T13:53:44.108Z,3.42
2018-01-04T13:56:11.560Z,3.10
2018-01-04T13:58:39.030Z,2.55
2018-01-04T14:01:06.594Z,3.50
2018-01-04T14:03:34.038Z,2.78
2018-01-04T14:06:01.470Z,3.28
2018-01-04T14:08:29.906Z,2.62
2018-01-04T14:10:57.341Z,2.45
2018-01-04T14:13:24.777Z,2.55
2018-01-04T14:15:52.296Z,2.58
2018-01-04T14:18:19.741Z,3.55
2018-01-04T14:20:47.173Z,4.65
2018-01-04T14:23:14.954Z,6.28
2018-01-04T14:25:42.384Z,6.25
2018-01-04T14:28:10.022Z,5.12
2018-01-04T14:30:37.461Z,4.00
2018-01-04T14:33:05.660Z,4.20
2018-01-04T14:35:33.128Z,5.30
2018-01-04T14:38:01.344Z,5.30
2018-01-04T14:40:28.801Z,3.72
2018-01-04T14:42:56.393Z,4.90
2018-01-04T14:45:24.593Z,4.10
2018-01-04T14:47:52.490Z,4.22
2018-01-04T14:50:19.927Z,4.50
2018-01-04T14:52:47.379Z,5.20
2018-01-04T14:55:15.613Z,6.43
2018-01-04T14:57:43.050Z,5.20
2018-01-04T15:00:10.681Z,5.47
2018-01-04T15:02:38.122Z,6.40
2018-01-04T15:05:05.553Z,5.60
2018-01-04T15:07:33.781Z,8.80
2018-01-04T15:10:01.217Z,8.80
2018-01-04T15:12:28.681Z,20.48
2018-01-04T15:14:56.125Z,16.15
2018-01-04T15:17:23.785Z,15.15
2018-01-04T15:19:51.237Z,12.85
2018-01-04T15:22:18.708Z,17.15
2018-01-04T15:24:46.148Z,14.75
2018-01-04T15:27:14.377Z,15.70
2018-01-04T15:29:41.819Z,17.65
2018-01-04T15:32:09.288Z,17.15
2018-01-04T15:34:36.730Z,14.80
2018-01-04T15:37:04.164Z,15.82
2018-01-04T15:39:31.738Z,21.08
2018-01-04T15:41:59.265Z,20.48
2018-01-04T15:44:27.473Z,21.08
2018-01-04T15:46:54.916Z,24.42
2018-01-04T15:49:26.274Z,31.58
2018-01-04T15:51:53.743Z,39.58
2018-01-04T15:54:21.232Z,47.13
2018-01-04T15:56:48.669Z,30.58
2018-01-04T15:59:16.112Z,18.52
2018-01-04T16:01:43.717Z,20.30
2018-01-04T16:04:11.178Z,20.33
2018-01-04T16:06:38.614Z,24.63
2018-01-04T16:09:06.081Z,17.98
2018-01-04T16:11:33.524Z,17.95
2018-01-04T16:14:00.987Z,23.90
2018-01-04T16:16:28.614Z,23.00
2018-01-04T16:18:56.050Z,23.33
2018-01-04T16:21:24.252Z,17.48
2018-01-04T16:23:51.832Z,27.70
2018-01-04T16:26:19.276Z,30.05
2018-01-04T16:28:46.722Z,22.00
2018-01-04T16:31:18.450Z,17.40
2018-01-04T16:33:46.658Z,18.37
2018-01-04T16:36:14.107Z,16.02
2018-01-04T16:38:41.589Z,23.23
2018-01-04T16:41:09.021Z,17.65
2018-01-04T16:43:36.461Z,15.75
2018-01-04T16:46:04.693Z,18.08
2018-01-04T16:48:32.137Z,21.90
2018-01-04T16:50:59.668Z,18.52
2018-01-04T16:53:27.109Z,15.05
2018-01-04T16:55:55.314Z,17.73
2018-01-04T16:58:22.781Z,14.43
2018-01-04T17:00:50.984Z,19.35
2018-01-04T17:03:18.460Z,14.38
2018-01-04T17:05:46.669Z,25.00
2018-01-04T17:08:14.197Z,15.18
2018-01-04T17:10:42.396Z,18.60
2018-01-04T17:13:13.476Z,21.48
2018-01-04T17:15:40.912Z,17.55
2018-01-04T17:18:08.389Z,13.93
2018-01-04T17:20:35.847Z,17.45
2018-01-04T17:23:03.293Z,16.20
2018-01-04T17:25:30.965Z,18.67
2018-01-04T17:27:58.857Z,16.65
2018-01-04T17:30:26.282Z,20.30
2018-01-04T17:32:53.872Z,26.42
2018-01-04T17:35:21.350Z,17.77
2018-01-04T17:37:49.579Z,18.25
2018-01-04T17:40:26.910Z,22.50
2018-01-04T17:42:55.142Z,24.67
2018-01-04T17:45:22.706Z,19.70
2018-01-04T17:47:50.153Z,17.55
2018-01-04T17:50:17.740Z,22.15
2018-01-04T17:52:45.707Z,20.17
2018-01-04T17:55:13.138Z,21.30
2018-01-04T17:57:40.573Z,24.65
2018-01-04T18:00:08.037Z,26.20
2018-01-04T18:02:35.470Z,22.08
2018-01-04T18:05:03.799Z,23.55
2018-01-04T18:07:31.235Z,24.85
2018-01-04T18:09:58.670Z,28.83
2018-01-04T18:12:26.897Z,24.37
2018-01-04T18:14:54.333Z,33.15
2018-01-04T18:17:21.792Z,28.90
2018-01-04T18:19:49.457Z,26.90
2018-01-04T18:22:17.057Z,32.85
2018-01-04T18:24:44.493Z,21.85
2018-01-04T18:27:11.938Z,25.17
2018-01-04T18:29:39.497Z,18.15
2018-01-04T18:32:06.933Z,26.00
2018-01-04T18:34:34.401Z,24.65
2018-01-04T18:37:01.833Z,25.80
2018-01-04T18:39:29.598Z,29.20
2018-01-04T18:41:57.102Z,28.33
2018-01-04T18:44:25.768Z,26.08
2018-01-04T18:46:53.197Z,26.33
2018-01-04T18:49:21.433Z,24.10
2018-01-04T18:51:48.866Z,26.87
2018-01-04T18:54:16.340Z,25.00
2018-01-04T18:56:43.765Z,21.70
2018-01-04T18:59:12.060Z,22.58
2018-01-04T19:01:39.499Z,27.83
2018-01-04T19:04:07.066Z,31.75
2018-01-04T19:06:34.498Z,27.70
2018-01-04T19:09:01.933Z,24.08
2018-01-04T19:11:29.424Z,31.92
2018-01-04T19:13:56.865Z,30.55
2018-01-04T19:16:25.070Z,21.67
2018-01-04T19:18:52.613Z,31.15
2018-01-04T19:21:20.046Z,29.17
2018-01-04T19:23:49.145Z,23.02
2018-01-04T19:26:17.358Z,28.02
2018-01-04T19:28:44.823Z,31.35
2018-01-04T19:31:12.272Z,26.77
2018-01-04T19:33:40.132Z,27.98
2018-01-04T19:36:07.581Z,31.95
2018-01-04T19:38:35.016Z,25.45
2018-01-04T19:41:04.708Z,26.92
2018-01-04T19:43:32.157Z,36.03
2018-01-04T19:45:59.589Z,24.27
2018-01-04T19:48:27.053Z,26.12
2018-01-04T19:50:54.576Z,37.90
2018-01-04T19:53:22.078Z,25.73
2018-01-04T19:55:49.570Z,40.30
2018-01-04T19:58:17.294Z,30.10
2018-01-04T20:00:44.730Z,23.95
2018-01-04T20:03:12.170Z,30.12
2018-01-04T20:05:39.630Z,27.55
2018-01-04T20:08:07.104Z,29.85
2018-01-04T20:10:34.536Z,26.65
2018-01-04T20:13:01.978Z,21.20
2018-01-04T20:15:30.391Z,28.80
2018-01-04T20:17:57.822Z,23.00
2018-01-04T20:20:26.145Z,22.95
2018-01-04T20:22:53.588Z,28.77
2018-01-04T20:25:21.049Z,21.50
2018-01-04T20:27:48.484Z,26.92
2018-01-04T20:30:15.973Z,19.20
2018-01-04T20:32:43.420Z,18.95
2018-01-04T20:35:17.076Z,16.10
2018-01-04T20:37:44.512Z,19.02
2018-01-04T20:40:12.014Z,27.25
2018-01-04T20:42:39.449Z,24.17
2018-01-04T20:45:07.672Z,15.90
2018-01-04T20:47:35.138Z,20.48
2018-01-04T20:50:02.606Z,16.92
2018-01-04T20:52:30.041Z,20.37
2018-01-04T20:54:57.831Z,24.55
2018-01-04T20:57:25.274Z,16.52
2018-01-04T20:59:52.737Z,15.48
2018-01-04T21:02:20.202Z,16.33
2018-01-04T21:04:47.648Z,17.30
2018-01-04T21:07:19.927Z,15.60
2018-01-04T21:09:47.376Z,14.32
2018-01-04T21:12:14.925Z,10.43
2018-01-04T21:14:42.357Z,17.20
2018-01-04T21:17:11.215Z,12.55
2018-01-04T21:19:38.641Z,17.60
2018-01-04T21:22:10.042Z,17.33
2018-01-04T21:24:38.272Z,12.80
2018-01-04T21:27:05.741Z,11.55
2018-01-04T21:29:33.458Z,16.17
2018-01-04T21:32:00.891Z,11.65
2018-01-04T21:34:28.325Z,12.45
2018-01-04T21:36:55.780Z,15.75
2018-01-04T21:39:23.237Z,12.18
2018-01-04T21:41:51.624Z,11.88
2018-01-04T21:44:19.094Z,13.60
2018-01-04T21:46:46.517Z,15.05
2018-01-04T21:49:14.144Z,15.43
2018-01-04T21:51:41.629Z,13.88
2018-01-04T21:54:09.089Z,17.73
2018-01-04T21:56:52.477Z,8.27
2018-01-04T21:59:20.712Z,14.70
2018-01-04T22:01:48.168Z,16.83
2018-01-04T22:04:15.681Z,21.42
2018-01-04T22:06:43.117Z,16.35
2018-01-04T22:09:11.365Z,12.98
2018-01-04T22:11:38.805Z,18.87
2018-01-04T22:14:06.246Z,17.58
2018-01-04T22:16:33.725Z,14.02
2018-01-04T22:19:01.181Z,13.18
2018-01-04T22:21:44.037Z,16.35
2018-01-04T22:24:11.469Z,13.18
2018-01-04T22:26:38.897Z,16.83
2018-01-04T22:29:06.398Z,10.70
2018-01-04T22:31:33.831Z,8.73
2018-01-04T22:34:01.261Z,18.77
2018-01-04T22:36:28.723Z,10.88
2018-01-04T22:38:56.316Z,14.60
2018-01-04T22:41:23.811Z,11.73
2018-01-04T22:43:52.026Z,11.10
2018-01-04T22:46:19.458Z,16.17
2018-01-04T22:48:46.927Z,11.02
2018-01-04T22:51:14.644Z,10.68
2018-01-04T22:53:42.108Z,13.65
2018-01-04T22:56:09.543Z,12.82
2018-01-04T22:58:37.134Z,15.48
2018-01-04T23:01:05.385Z,17.70
2018-01-04T23:03:32.820Z,13.05
2018-01-04T23:06:09.404Z,14.05
2018-01-04T23:08:36.837Z,13.55
2018-01-04T23:11:04.317Z,9.02
2018-01-04T23:13:31.749Z,21.55
2018-01-04T23:15:59.180Z,12.00
2018-01-04T23:18:29.556Z,12.60
2018-01-04T23:20:57.244Z,18.67
2018-01-04T23:23:24.673Z,12.30
2018-01-04T23:25:52.106Z,11.52
2018-01-04T23:28:19.646Z,10.98
2018-01-04T23:30:47.110Z,11.12
2018-01-04T23:33:14.540Z,13.50
2018-01-04T23:38:33.653Z,8.88
2018-01-04T23:41:01.230Z,10.27
2018-01-04T23:43:28.652Z,9.18
2018-01-04T23:45:56.858Z,10.07
2018-01-04T23:48:24.341Z,10.52
2018-01-04T23:50:51.773Z,9.75
2018-01-04T23:53:19.202Z,9.70
2018-01-04T23:55:47.816Z,10.00
2018-01-04T23:58:15.608Z,10.48
